createdAt,value
2024-02-07T00:02:18.628Z,98397.44
2024-02-07T00:04:46.239Z,98398.03
2024-02-07T00:07:14.675Z,98389.09
2024-02-07T00:09:42.005Z,98394.72
2024-02-07T00:12:09.894Z,98390.78
2024-02-07T00:14:37.972Z,98386.63
2024-02-07T00:17:05.860Z,98387.53
2024-02-07T00:19:32.759Z,98380.22
2024-02-07T00:21:59.704Z,98379.56
2024-02-07T00:24:26.617Z,98375.69
2024-02-07T00:26:56.804Z,98360.47
2024-02-07T00:29:24.225Z,98374.00
2024-02-07T00:31:51.820Z,98359.00
2024-02-07T00:34:19.056Z,98364.97
2024-02-07T00:36:47.106Z,98350.25
2024-02-07T00:39:14.984Z,98335.38
2024-02-07T00:41:45.491Z,98337.50
2024-02-07T00:44:13.618Z,98334.13
2024-02-07T00:46:40.534Z,98333.22
2024-02-07T00:49:13.891Z,98334.75
2024-02-07T00:51:42.028Z,98341.94
2024-02-07T00:54:13.013Z,98331.19
2024-02-07T00:56:42.131Z,98329.91
2024-02-07T00:59:11.008Z,98329.34
2024-02-07T01:01:38.120Z,98343.22
2024-02-07T01:04:06.487Z,98335.88
2024-02-07T01:06:33.518Z,98333.22
2024-02-07T01:09:00.839Z,98333.34
2024-02-07T01:11:27.869Z,98334.97
2024-02-07T01:13:54.839Z,98330.69
2024-02-07T01:16:22.222Z,98321.53
2024-02-07T01:18:52.204Z,98318.88
2024-02-07T01:21:24.934Z,98304.44
2024-02-07T01:23:52.241Z,98305.47
2024-02-07T01:26:21.316Z,98290.22
2024-02-07T01:28:50.727Z,98276.69
2024-02-07T01:31:19.610Z,98293.13
2024-02-07T01:33:47.795Z,98285.38
2024-02-07T01:36:16.854Z,98278.28
2024-02-07T01:38:44.202Z,98276.97
2024-02-07T01:41:12.231Z,98285.56
2024-02-07T01:43:40.177Z,98280.53
2024-02-07T01:46:08.360Z,98275.81
2024-02-07T01:48:35.893Z,98268.84
2024-02-07T01:51:05.053Z,98276.81
2024-02-07T01:53:32.657Z,98269.00
2024-02-07T01:56:00.927Z,98254.94
2024-02-07T01:58:31.166Z,98253.31
2024-02-07T02:00:59.997Z,98277.91
2024-02-07T02:03:26.978Z,98258.28
2024-02-07T02:05:54.683Z,98270.53
2024-02-07T02:08:24.464Z,98249.94
2024-02-07T02:10:59.430Z,98242.47
2024-02-07T02:13:28.665Z,98243.41
2024-02-07T02:15:55.541Z,98251.72
2024-02-07T02:18:22.384Z,98249.25
2024-02-07T02:20:49.598Z,98257.88
2024-02-07T02:23:47.551Z,98229.34
2024-02-07T02:26:40.082Z,98230.03
2024-02-07T02:29:34.287Z,98238.88
2024-02-07T02:32:03.132Z,98221.53
2024-02-07T02:34:35.810Z,98235.66
2024-02-07T02:37:06.411Z,98222.47
2024-02-07T02:39:33.754Z,98221.72
2024-02-07T02:42:01.976Z,98232.84
2024-02-07T02:44:31.509Z,98211.22
2024-02-07T02:47:02.919Z,98199.88
2024-02-07T02:49:31.405Z,98196.34
2024-02-07T02:52:02.081Z,98194.63
2024-02-07T02:54:33.332Z,98207.56
2024-02-07T02:57:06.259Z,98207.34
2024-02-07T02:59:36.381Z,98208.41
2024-02-07T03:02:10.448Z,98213.06
2024-02-07T03:04:45.162Z,98213.69
2024-02-07T03:07:26.595Z,98198.69
2024-02-07T03:09:53.994Z,98194.66
2024-02-07T03:12:21.779Z,98196.53
2024-02-07T03:14:49.775Z,98176.19
2024-02-07T03:17:16.715Z,98186.75
2024-02-07T03:19:43.482Z,98169.41
2024-02-07T03:22:10.738Z,98170.94
2024-02-07T03:24:37.572Z,98182.81
2024-02-07T03:27:05.532Z,98159.91
2024-02-07T03:29:33.979Z,98154.19
2024-02-07T03:32:04.002Z,98161.72
2024-02-07T03:34:32.033Z,98162.28
2024-02-07T03:36:58.947Z,98140.44
2024-02-07T03:39:25.934Z,98143.41
2024-02-07T03:41:53.531Z,98119.31
2024-02-07T03:44:22.362Z,98145.88
2024-02-07T03:46:53.463Z,98130.78
2024-02-07T03:49:21.979Z,98138.16
2024-02-07T03:51:49.355Z,98119.09
2024-02-07T03:54:17.357Z,98103.38
2024-02-07T03:56:44.224Z,98121.19
2024-02-07T03:59:13.449Z,98096.69
2024-02-07T04:01:41.033Z,98110.72
2024-02-07T04:04:09.960Z,98110.34
2024-02-07T04:06:38.332Z,98117.06
2024-02-07T04:09:07.542Z,98110.34
2024-02-07T04:11:34.626Z,98090.66
2024-02-07T04:14:01.533Z,98100.94
2024-02-07T04:16:43.582Z,98093.19
2024-02-07T04:19:24.327Z,98108.56
2024-02-07T04:22:06.559Z,98088.78
2024-02-07T04:24:47.418Z,98098.22
2024-02-07T04:27:28.553Z,98076.16
2024-02-07T04:30:09.570Z,98102.16
2024-02-07T04:32:50.805Z,98072.00
2024-02-07T04:35:31.087Z,98063.81
2024-02-07T04:38:18.527Z,98050.13
2024-02-07T04:40:59.834Z,98070.78
2024-02-07T04:43:42.073Z,98085.88
2024-02-07T04:46:24.183Z,98045.81
2024-02-07T04:49:08.525Z,98035.53
2024-02-07T04:51:48.957Z,98034.38
2024-02-07T04:54:30.325Z,98041.94
2024-02-07T04:57:11.417Z,98081.97
2024-02-07T04:59:54.166Z,98038.44
2024-02-07T05:02:35.136Z,98045.53
2024-02-07T05:05:18.655Z,98021.97
2024-02-07T05:07:59.534Z,98015.47
2024-02-07T05:10:43.342Z,98036.41
2024-02-07T05:13:26.951Z,98002.81
2024-02-07T05:15:55.978Z,98012.06
2024-02-07T05:18:23.635Z,98001.50
2024-02-07T05:20:51.789Z,98033.84
2024-02-07T05:23:21.599Z,98033.84
2024-02-07T05:25:49.748Z,98021.59
2024-02-07T05:28:17.164Z,98016.97
2024-02-07T05:30:45.641Z,98023.09
2024-02-07T05:33:13.141Z,98009.44
2024-02-07T05:35:40.525Z,98029.22
2024-02-07T05:38:07.348Z,98033.66
2024-02-07T05:40:37.583Z,98017.06
2024-02-07T05:43:04.955Z,98019.63
2024-02-07T05:45:31.810Z,98057.09
2024-02-07T05:47:58.812Z,98011.88
2024-02-07T05:50:29.228Z,98004.06
2024-02-07T05:52:56.201Z,98012.72
2024-02-07T05:55:26.297Z,98008.28
2024-02-07T05:57:54.306Z,97995.56
2024-02-07T06:00:21.344Z,98024.13
2024-02-07T06:02:48.710Z,98009.13
2024-02-07T06:05:16.144Z,98011.69
2024-02-07T06:07:47.215Z,98003.00
2024-02-07T06:10:14.587Z,98027.06
2024-02-07T06:12:46.393Z,98026.88
2024-02-07T06:15:13.761Z,98007.63
2024-02-07T06:17:41.384Z,98021.50
2024-02-07T06:20:10.154Z,98016.44
2024-02-07T06:22:39.308Z,98020.63
2024-02-07T06:25:07.741Z,98019.91
2024-02-07T06:27:35.097Z,98005.66
2024-02-07T06:30:02.465Z,98005.00
2024-02-07T06:32:30.425Z,98015.66
2024-02-07T06:34:59.448Z,98031.78
2024-02-07T06:37:26.341Z,98027.25
2024-02-07T06:39:54.885Z,98012.66
2024-02-07T06:42:22.459Z,98023.66
2024-02-07T06:44:49.728Z,98027.53
2024-02-07T06:47:20.250Z,98018.78
2024-02-07T06:49:47.204Z,98014.34
2024-02-07T06:52:14.187Z,98001.06
2024-02-07T06:54:42.127Z,98001.06
2024-02-07T06:57:10.094Z,98011.50
2024-02-07T06:59:38.072Z,97999.34
2024-02-07T07:02:05.250Z,98009.72
2024-02-07T07:04:34.484Z,97999.81
2024-02-07T07:07:03.167Z,98016.31
2024-02-07T07:09:30.464Z,98065.66
2024-02-07T07:11:57.331Z,98025.63
2024-02-07T07:14:26.386Z,98024.34
2024-02-07T07:16:57.893Z,97997.75
2024-02-07T07:19:25.045Z,98001.34
2024-02-07T07:21:52.616Z,97994.63
2024-02-07T07:24:19.759Z,98006.00
2024-02-07T07:26:46.701Z,98003.50
2024-02-07T07:29:13.736Z,97995.47
2024-02-07T07:31:41.329Z,97990.19
2024-02-07T07:34:08.669Z,98002.25
2024-02-07T07:36:37.109Z,98000.00
2024-02-07T07:39:04.389Z,97992.94
2024-02-07T07:41:33.820Z,97994.63
2024-02-07T07:44:04.020Z,97990.75
2024-02-07T07:46:31.023Z,98004.16
2024-02-07T07:49:01.583Z,97990.66
2024-02-07T07:51:30.070Z,97981.34
2024-02-07T07:54:00.476Z,97998.09
2024-02-07T07:56:32.358Z,97967.38
2024-02-07T07:58:59.812Z,97997.19
2024-02-07T08:01:29.043Z,97993.69
2024-02-07T08:03:57.586Z,97991.13
2024-02-07T08:06:24.622Z,98010.38
2024-02-07T08:08:52.914Z,97978.34
2024-02-07T08:11:19.938Z,98014.41
2024-02-07T08:13:46.947Z,97966.06
2024-02-07T08:16:14.562Z,97987.84
2024-02-07T08:18:43.510Z,97976.91
2024-02-07T08:21:10.950Z,97991.13
2024-02-07T08:23:39.214Z,97981.34
2024-02-07T08:26:06.838Z,98000.38
2024-02-07T08:28:34.164Z,97961.72
2024-02-07T08:31:01.647Z,97951.75
2024-02-07T08:33:30.319Z,97993.69
2024-02-07T08:36:01.681Z,97964.66
2024-02-07T08:38:29.105Z,97981.34
2024-02-07T08:40:57.596Z,97982.38
2024-02-07T08:43:24.568Z,97961.06
2024-02-07T08:45:51.436Z,97966.44
2024-02-07T08:48:18.537Z,97967.00
2024-02-07T08:50:45.919Z,97951.84
2024-02-07T08:53:15.879Z,97961.13
2024-02-07T08:55:44.550Z,97973.38
2024-02-07T08:58:12.844Z,97979.97
2024-02-07T09:00:41.949Z,97963.75
2024-02-07T09:03:09.844Z,97955.59
2024-02-07T09:05:37.745Z,97962.25
2024-02-07T09:08:08.331Z,97956.34
2024-02-07T09:10:38.636Z,97956.25
2024-02-07T09:13:05.836Z,97963.31
2024-02-07T09:15:32.716Z,97959.53
2024-02-07T09:17:59.695Z,97963.00
2024-02-07T09:20:29.165Z,97958.56
2024-02-07T09:22:56.241Z,97975.00
2024-02-07T09:25:23.799Z,97959.69
2024-02-07T09:27:51.101Z,97960.63
2024-02-07T09:30:18.911Z,97983.44
2024-02-07T09:32:47.432Z,97951.75
2024-02-07T09:35:14.602Z,97967.81
2024-02-07T09:37:43.413Z,97983.59
2024-02-07T09:40:11.575Z,97976.50
2024-02-07T09:42:44.539Z,97953.59
2024-02-07T09:45:15.574Z,97960.78
2024-02-07T09:48:19.694Z,97970.91
2024-02-07T09:50:51.896Z,97964.59
2024-02-07T09:53:20.974Z,97992.59
2024-02-07T09:55:49.803Z,97984.78
2024-02-07T09:58:19.864Z,97967.03
2024-02-07T10:00:47.966Z,97989.09
2024-02-07T10:03:25.831Z,97974.84
2024-02-07T10:06:00.817Z,97955.84
2024-02-07T10:08:29.190Z,97972.09
2024-02-07T10:11:00.489Z,97968.72
2024-02-07T10:13:28.343Z,97949.47
2024-02-07T10:15:58.688Z,97959.72
2024-02-07T10:18:26.766Z,97972.34
2024-02-07T10:20:55.897Z,97970.75
2024-02-07T10:23:24.053Z,97964.72
2024-02-07T10:25:55.238Z,97969.59
2024-02-07T10:28:27.591Z,97960.09
2024-02-07T10:31:03.535Z,97962.81
2024-02-07T10:33:49.355Z,97954.69
2024-02-07T10:36:16.944Z,97980.88
2024-02-07T10:38:44.460Z,97957.09
2024-02-07T10:41:13.142Z,97977.59
2024-02-07T10:43:43.255Z,97958.16
2024-02-07T10:46:15.691Z,97986.72
2024-02-07T10:48:44.309Z,97975.47
2024-02-07T10:51:12.634Z,97989.88
2024-02-07T10:53:40.007Z,97973.50
2024-02-07T10:56:14.624Z,97983.91
2024-02-07T10:58:44.587Z,97990.16
2024-02-07T11:01:12.670Z,97986.94
2024-02-07T11:03:39.840Z,97995.72
2024-02-07T11:06:07.910Z,97993.81
2024-02-07T11:08:35.886Z,98014.16
2024-02-07T11:11:04.799Z,98021.19
2024-02-07T11:13:32.753Z,98025.25
2024-02-07T11:16:00.668Z,98028.78
2024-02-07T11:18:30.697Z,98044.06
2024-02-07T11:20:59.600Z,98042.72
2024-02-07T11:23:33.279Z,98056.47
2024-02-07T11:26:02.797Z,98071.06
2024-02-07T11:28:30.355Z,98078.16
2024-02-07T11:31:00.291Z,98081.16
2024-02-07T11:33:27.851Z,98080.03
2024-02-07T11:36:06.044Z,98109.47
2024-02-07T11:38:37.978Z,98110.06
2024-02-07T11:41:07.052Z,98112.69
2024-02-07T11:43:38.182Z,98103.50
2024-02-07T11:46:08.263Z,98106.19
2024-02-07T11:48:42.146Z,98094.13
2024-02-07T11:51:10.408Z,98124.41
2024-02-07T11:53:41.881Z,98123.41
2024-02-07T11:56:13.447Z,98114.19
2024-02-07T11:58:47.793Z,98127.22
2024-02-07T12:01:17.074Z,98121.00
2024-02-07T12:03:44.621Z,98126.09
2024-02-07T12:06:14.183Z,98140.53
2024-02-07T12:08:42.753Z,98124.81
2024-02-07T12:11:11.787Z,98156.81
2024-02-07T12:13:40.057Z,98152.97
2024-02-07T12:16:10.378Z,98142.22
2024-02-07T12:18:37.973Z,98144.03
2024-02-07T12:21:06.225Z,98155.19
2024-02-07T12:23:35.412Z,98161.13
2024-02-07T12:26:05.499Z,98171.94
2024-02-07T12:28:33.029Z,98177.94
2024-02-07T12:31:01.273Z,98169.63
2024-02-07T12:33:29.402Z,98167.53
2024-02-07T12:35:59.027Z,98184.09
2024-02-07T12:38:27.083Z,98175.06
2024-02-07T12:40:56.563Z,98192.94
2024-02-07T12:43:26.242Z,98181.47
2024-02-07T12:45:56.377Z,98189.13
2024-02-07T12:48:24.451Z,98195.81
2024-02-07T12:50:52.323Z,98196.03
2024-02-07T12:53:19.440Z,98196.16
2024-02-07T12:55:50.264Z,98196.34
2024-02-07T12:58:17.877Z,98203.25
2024-02-07T13:00:45.628Z,98198.06
2024-02-07T13:03:15.921Z,98213.19
2024-02-07T13:05:43.306Z,98217.81
2024-02-07T13:08:13.493Z,98207.00
2024-02-07T13:10:41.734Z,98213.94
2024-02-07T13:13:09.183Z,98217.94
2024-02-07T13:15:36.067Z,98208.34
2024-02-07T13:18:04.231Z,98208.69
2024-02-07T13:20:32.567Z,98206.53
2024-02-07T13:22:59.805Z,98206.38
2024-02-07T13:25:27.126Z,98215.00
2024-02-07T13:27:54.395Z,98214.94
2024-02-07T13:30:21.386Z,98217.69
2024-02-07T13:32:48.876Z,98211.47
2024-02-07T13:35:19.442Z,98223.03
2024-02-07T13:37:47.037Z,98225.72
2024-02-07T13:40:17.276Z,98218.91
2024-02-07T13:42:44.627Z,98221.34
2024-02-07T13:45:11.808Z,98222.56
2024-02-07T13:47:39.397Z,98217.16
2024-02-07T13:50:07.015Z,98222.97
2024-02-07T13:52:34.463Z,98221.00
2024-02-07T13:55:01.445Z,98207.75
2024-02-07T13:57:28.461Z,98226.63
2024-02-07T13:59:55.345Z,98213.16
2024-02-07T14:02:23.546Z,98211.56
2024-02-07T14:04:50.851Z,98205.38
2024-02-07T14:07:17.906Z,98206.63
2024-02-07T14:09:45.267Z,98216.97
2024-02-07T14:12:12.095Z,98233.00
2024-02-07T14:14:39.181Z,98222.16
2024-02-07T14:17:06.178Z,98217.41
2024-02-07T14:19:32.981Z,98220.78
2024-02-07T14:22:03.974Z,98220.38
2024-02-07T14:24:31.517Z,98220.59
2024-02-07T14:26:58.418Z,98225.25
2024-02-07T14:29:26.374Z,98224.34
2024-02-07T14:31:54.373Z,98226.38
2024-02-07T14:37:03.714Z,98232.56
2024-02-07T14:39:31.452Z,98233.72
2024-02-07T14:41:59.584Z,98246.50
2024-02-07T14:44:30.923Z,98243.25
2024-02-07T14:46:58.180Z,98244.09
2024-02-07T14:49:29.377Z,98243.66
2024-02-07T14:51:56.594Z,98238.53
2024-02-07T14:54:23.735Z,98238.22
2024-02-07T14:56:52.319Z,98236.00
2024-02-07T14:59:19.511Z,98237.78
2024-02-07T15:01:46.649Z,98246.22
2024-02-07T15:04:14.168Z,98245.03
2024-02-07T15:06:41.597Z,98249.53
2024-02-07T15:09:08.842Z,98250.25
2024-02-07T15:11:36.163Z,98241.53
2024-02-07T15:14:04.539Z,98239.03
2024-02-07T15:16:33.164Z,98236.47
2024-02-07T15:19:00.481Z,98234.84
2024-02-07T15:21:27.811Z,98230.34
2024-02-07T15:23:58.266Z,98245.03
2024-02-07T15:26:27.344Z,98242.22
2024-02-07T15:28:54.712Z,98248.38
2024-02-07T15:31:21.708Z,98238.75
2024-02-07T15:33:48.717Z,98245.25
2024-02-07T15:36:16.081Z,98254.66
2024-02-07T15:38:42.981Z,98242.56
2024-02-07T15:41:10.029Z,98248.38
2024-02-07T15:43:37.498Z,98242.28
2024-02-07T15:46:05.043Z,98243.75
2024-02-07T15:48:32.580Z,98249.00
2024-02-07T15:50:59.832Z,98250.25
2024-02-07T15:53:27.277Z,98252.41
2024-02-07T15:55:57.360Z,98252.63
2024-02-07T15:58:24.800Z,98255.81
2024-02-07T16:00:52.252Z,98262.88
2024-02-07T16:03:19.575Z,98278.06
2024-02-07T16:05:46.910Z,98277.91
2024-02-07T16:08:14.431Z,98291.03
2024-02-07T16:10:44.932Z,98283.41
2024-02-07T16:13:11.994Z,98278.66
2024-02-07T16:15:39.657Z,98282.09
2024-02-07T16:18:07.075Z,98296.69
2024-02-07T16:20:34.414Z,98288.91
2024-02-07T16:23:04.375Z,98283.44
2024-02-07T16:25:31.882Z,98276.72
2024-02-07T16:28:02.433Z,98299.47
2024-02-07T16:30:33.031Z,98320.53
2024-02-07T16:33:00.376Z,98327.63
2024-02-07T16:35:27.881Z,98309.81
2024-02-07T16:37:55.352Z,98312.38
2024-02-07T16:40:27.493Z,98306.41
2024-02-07T16:42:54.862Z,98311.72
2024-02-07T16:45:23.268Z,98325.19
2024-02-07T16:47:50.358Z,98332.34
2024-02-07T16:50:18.201Z,98327.31
2024-02-07T16:52:45.856Z,98338.63
2024-02-07T16:55:14.557Z,98349.81
2024-02-07T16:57:42.066Z,98339.47
2024-02-07T17:00:12.075Z,98345.19
2024-02-07T17:02:42.840Z,98339.03
2024-02-07T17:05:14.829Z,98345.75
2024-02-07T17:07:45.442Z,98349.19
2024-02-07T17:10:12.961Z,98359.28
2024-02-07T17:12:40.196Z,98353.13
2024-02-07T17:15:07.855Z,98356.88
2024-02-07T17:17:35.279Z,98360.53
2024-02-07T17:20:02.486Z,98363.72
2024-02-07T17:22:31.450Z,98358.75
2024-02-07T17:25:01.088Z,98362.41
2024-02-07T17:27:30.508Z,98358.69
2024-02-07T17:30:03.327Z,98354.28
2024-02-07T17:32:32.684Z,98367.75
2024-02-07T17:35:00.344Z,98374.16
2024-02-07T17:37:28.706Z,98377.38
2024-02-07T17:39:55.922Z,98376.63
2024-02-07T17:42:23.638Z,98379.50
2024-02-07T17:44:51.909Z,98392.63
2024-02-07T17:47:22.873Z,98389.00
2024-02-07T17:49:49.968Z,98390.09
2024-02-07T17:52:17.520Z,98378.72
2024-02-07T17:54:44.897Z,98388.38
2024-02-07T17:57:11.895Z,98396.47
2024-02-07T17:59:39.878Z,98385.09
2024-02-07T18:02:07.064Z,98376.22
2024-02-07T18:04:34.042Z,98382.50
2024-02-07T18:07:01.107Z,98377.88
2024-02-07T18:09:28.478Z,98393.03
2024-02-07T18:11:55.522Z,98394.00
2024-02-07T18:14:23.465Z,98398.25
2024-02-07T18:16:50.512Z,98400.09
2024-02-07T18:19:17.509Z,98408.16
2024-02-07T18:21:44.789Z,98411.56
2024-02-07T18:24:17.823Z,98402.16
2024-02-07T18:26:46.348Z,98403.03
2024-02-07T18:29:14.535Z,98403.84
2024-02-07T18:31:42.398Z,98409.84
2024-02-07T18:34:10.379Z,98419.50
2024-02-07T18:36:38.553Z,98407.19
2024-02-07T18:39:07.781Z,98407.41
2024-02-07T18:41:34.790Z,98421.44
2024-02-07T18:44:02.642Z,98412.69
2024-02-07T18:46:35.879Z,98421.38
2024-02-07T18:49:03.375Z,98425.72
2024-02-07T18:51:32.937Z,98413.16
2024-02-07T18:54:00.200Z,98421.75
2024-02-07T18:56:28.201Z,98417.25
2024-02-07T18:58:56.853Z,98418.28
2024-02-07T19:01:24.218Z,98417.38
2024-02-07T19:03:52.516Z,98419.84
2024-02-07T19:06:19.650Z,98421.75
2024-02-07T19:08:49.078Z,98425.66
2024-02-07T19:11:16.615Z,98421.28
2024-02-07T19:13:44.240Z,98423.13
2024-02-07T19:16:11.519Z,98439.72
2024-02-07T19:18:38.975Z,98432.84
2024-02-07T19:21:06.474Z,98443.31
2024-02-07T19:23:33.980Z,98445.06
2024-02-07T19:26:01.322Z,98417.97
2024-02-07T19:28:29.914Z,98411.88
2024-02-07T19:30:57.204Z,98413.44
2024-02-07T19:33:24.651Z,98422.94
2024-02-07T19:35:53.699Z,98426.44
2024-02-07T19:38:21.848Z,98439.84
2024-02-07T19:40:49.126Z,98431.84
2024-02-07T19:43:16.501Z,98438.22
2024-02-07T19:45:43.672Z,98435.03
2024-02-07T19:48:10.953Z,98445.63
2024-02-07T19:50:38.398Z,98443.94
2024-02-07T19:53:05.342Z,98444.00
2024-02-07T19:55:32.845Z,98435.03
2024-02-07T19:58:01.060Z,98442.03
2024-02-07T20:00:30.373Z,98442.22
2024-02-07T20:02:58.724Z,98443.34
2024-02-07T20:05:26.415Z,98458.03
2024-02-07T20:07:54.241Z,98459.09
2024-02-07T20:10:21.771Z,98456.41
2024-02-07T20:12:49.257Z,98459.94
2024-02-07T20:15:16.561Z,98463.47
2024-02-07T20:17:45.801Z,98461.56
2024-02-07T20:20:13.451Z,98459.84
2024-02-07T20:22:41.001Z,98463.25
2024-02-07T20:25:11.075Z,98470.25
2024-02-07T20:27:38.428Z,98480.75
2024-02-07T20:30:06.548Z,98481.59
2024-02-07T20:32:33.885Z,98475.63
2024-02-07T20:35:06.744Z,98479.09
2024-02-07T20:37:35.500Z,98481.94
2024-02-07T20:40:06.302Z,98486.94
2024-02-07T20:42:36.117Z,98481.78
2024-02-07T20:45:04.616Z,98490.31
2024-02-07T20:47:37.242Z,98485.69
2024-02-07T20:50:06.292Z,98484.06
2024-02-07T20:52:34.609Z,98485.94
2024-02-07T20:55:05.959Z,98484.38
2024-02-07T20:57:35.585Z,98486.94
2024-02-07T21:00:04.327Z,98484.53
2024-02-07T21:02:33.384Z,98484.84
2024-02-07T21:05:01.917Z,98483.75
2024-02-07T21:07:31.212Z,98482.09
2024-02-07T21:09:58.488Z,98489.16
2024-02-07T21:12:25.443Z,98498.81
2024-02-07T21:14:53.743Z,98491.59
2024-02-07T21:17:29.781Z,98487.13
2024-02-07T21:19:58.250Z,98479.44
2024-02-07T21:22:25.662Z,98490.84
2024-02-07T21:24:52.959Z,98484.88
2024-02-07T21:27:22.945Z,98499.53
2024-02-07T21:29:54.305Z,98495.16
2024-02-07T21:32:22.635Z,98496.28
2024-02-07T21:34:50.883Z,98494.16
2024-02-07T21:37:18.008Z,98494.41
2024-02-07T21:39:45.088Z,98491.00
2024-02-07T21:42:13.432Z,98490.03
2024-02-07T21:44:40.273Z,98497.00
2024-02-07T21:47:09.505Z,98495.13
2024-02-07T21:49:36.818Z,98490.28
2024-02-07T21:52:06.521Z,98499.19
2024-02-07T21:54:33.768Z,98500.16
2024-02-07T21:57:00.722Z,98501.13
2024-02-07T21:59:29.741Z,98509.06
2024-02-07T22:01:57.160Z,98511.66
2024-02-07T22:04:26.894Z,98516.00
2024-02-07T22:06:55.568Z,98506.28
2024-02-07T22:09:23.531Z,98507.28
2024-02-07T22:11:51.339Z,98505.59
2024-02-07T22:14:20.504Z,98509.00
2024-02-07T22:16:48.552Z,98509.00
2024-02-07T22:19:16.415Z,98514.47
2024-02-07T22:21:48.176Z,98517.84
2024-02-07T22:24:16.060Z,98519.53
2024-02-07T22:26:44.057Z,98504.50
2024-02-07T22:29:11.082Z,98505.59
2024-02-07T22:31:41.163Z,98515.22
2024-02-07T22:34:08.745Z,98517.84
2024-02-07T22:36:37.405Z,98518.63
2024-02-07T22:39:05.391Z,98514.28
2024-02-07T22:41:33.309Z,98525.59
2024-02-07T22:44:03.920Z,98521.16
2024-02-07T22:46:34.396Z,98521.91
2024-02-07T22:49:02.404Z,98514.03
2024-02-07T22:51:29.775Z,98514.97
2024-02-07T22:53:56.784Z,98523.53
2024-02-07T22:56:25.700Z,98515.69
2024-02-07T22:58:52.732Z,98523.38
2024-02-07T23:01:20.725Z,98515.63
2024-02-07T23:03:48.222Z,98507.53
2024-02-07T23:06:15.772Z,98514.31
2024-02-07T23:08:45.263Z,98507.03
2024-02-07T23:11:12.572Z,98506.97
2024-02-07T23:13:39.482Z,98515.56
2024-02-07T23:16:08.608Z,98509.50
2024-02-07T23:18:37.016Z,98508.53
2024-02-07T23:21:03.947Z,98511.97
2024-02-07T23:23:35.354Z,98516.16
2024-02-07T23:26:02.392Z,98518.78
2024-02-07T23:28:29.952Z,98522.28
2024-02-07T23:30:56.793Z,98522.28
2024-02-07T23:33:23.756Z,98518.97
2024-02-07T23:35:50.838Z,98524.84
2024-02-07T23:38:17.712Z,98516.28
2024-02-07T23:40:45.140Z,98516.34
2024-02-07T23:43:16.572Z,98517.16
2024-02-07T23:45:44.628Z,98520.53
2024-02-07T23:48:11.727Z,98514.66
2024-02-07T23:50:39.013Z,98516.31
2024-02-07T23:53:07.963Z,98508.75
2024-02-07T23:55:34.990Z,98522.72
2024-02-07T23:58:01.883Z,98527.13
